Time;durP1;ratioP1;P1;durP2;ratioP2;P2;SDS_P1;SDS_P2;PMS_P1;PMS_P2;Temp;Humidity;BMP_temperature;BMP_pressure;BME280_temperature;BME280_humidity;BME280_pressure;Samples;Min_cycle;Max_cycle;Signal;HPM_P1;HPM_P2
2021/08/09 00:02:14;;;;;;;1.77;1.60;;;15.50;91.20;;;;;;3542344;40;20058;-66
2021/08/09 00:04:40;;;;;;;2.22;1.60;;;15.50;91.20;;;;;;3541046;40;20699;-65
2021/08/09 00:07:10;;;;;;;2.17;1.45;;;15.50;91.20;;;;;;3542749;40;20019;-65
2021/08/09 00:09:36;;;;;;;3.08;1.80;;;15.50;91.10;;;;;;3542056;40;20042;-66
2021/08/09 00:12:02;;;;;;;2.50;1.45;;;15.40;91.10;;;;;;3541836;40;20432;-66
2021/08/09 00:14:28;;;;;;;2.28;1.52;;;15.40;91.00;;;;;;3542740;40;20108;-65
2021/08/09 00:16:54;;;;;;;2.10;1.63;;;15.30;90.90;;;;;;3542160;40;20030;-66
2021/08/09 00:19:20;;;;;;;2.63;1.50;;;15.30;91.10;;;;;;3542591;40;20022;-66
2021/08/09 00:21:46;;;;;;;1.75;1.60;;;15.30;91.30;;;;;;3542571;40;20095;-66
2021/08/09 00:24:11;;;;;;;6.75;2.35;;;15.30;91.30;;;;;;3541829;40;20494;-65
2021/08/09 00:26:38;;;;;;;2.22;1.60;;;15.20;91.20;;;;;;3542336;40;20041;-65
2021/08/09 00:29:04;;;;;;;1.73;1.63;;;15.20;91.30;;;;;;3541454;40;20620;-66
2021/08/09 00:31:30;;;;;;;1.95;1.50;;;15.20;91.30;;;;;;3541785;40;20105;-66
2021/08/09 00:33:56;;;;;;;1.90;1.70;;;15.20;91.20;;;;;;3539410;40;20045;-66
2021/08/09 00:36:22;;;;;;;2.42;1.38;;;15.20;91.20;;;;;;3541738;40;20042;-66
2021/08/09 00:38:48;;;;;;;2.60;1.42;;;15.20;91.20;;;;;;3549039;40;20030;-66
2021/08/09 00:41:14;;;;;;;3.47;1.58;;;15.10;91.20;;;;;;3548489;40;20116;-67
2021/08/09 00:43:41;;;;;;;2.00;1.48;;;15.10;91.30;;;;;;3539899;40;20235;-65
2021/08/09 00:46:10;;;;;;;2.03;1.40;;;15.10;91.30;;;;;;3534613;40;20042;-65
2021/08/09 00:48:40;;;;;;;1.83;1.40;;;15.10;91.40;;;;;;3540312;40;20062;-65
2021/08/09 00:51:09;;;;;;;6.43;1.60;;;15.10;91.30;;;;;;3548156;40;20506;-64
2021/08/09 00:53:35;;;;;;;1.63;1.38;;;15.10;91.30;;;;;;3539367;40;20034;-66
2021/08/09 00:56:04;;;;;;;3.70;1.23;;;15.10;91.20;;;;;;3540213;40;20031;-65
2021/08/09 00:58:33;;;;;;;2.35;1.30;;;15.00;91.20;;;;;;3542322;40;20520;-65
2021/08/09 01:00:59;;;;;;;1.60;1.50;;;15.00;91.30;;;;;;3539177;40;20051;-65
2021/08/09 01:03:26;;;;;;;3.78;1.55;;;15.00;91.40;;;;;;3540154;40;20038;-66
2021/08/09 01:05:52;;;;;;;2.28;1.60;;;15.00;91.40;;;;;;3539530;40;20081;-66
2021/08/09 01:08:41;;;;;;;2.92;1.33;;;14.90;91.40;;;;;;3540198;40;20044;-65
2021/08/09 01:11:06;;;;;;;2.17;1.45;;;14.90;91.50;;;;;;3548048;40;20034;-65
2021/08/09 01:13:52;;;;;;;2.67;1.50;;;14.90;91.50;;;;;;3539616;40;20035;-65
2021/08/09 01:16:25;;;;;;;3.10;1.70;;;14.90;91.60;;;;;;3540658;40;20097;-66
2021/08/09 01:18:56;;;;;;;2.28;1.33;;;14.90;91.60;;;;;;3540436;40;20034;-65
2021/08/09 01:21:24;;;;;;;2.20;1.33;;;14.90;91.70;;;;;;3541986;40;20053;-65
2021/08/09 01:24:12;;;;;;;1.55;1.40;;;14.90;91.60;;;;;;3541528;40;20046;-67
2021/08/09 01:27:17;;;;;;;1.70;1.58;;;14.90;91.50;;;;;;3540304;40;20125;-65
2021/08/09 01:29:45;;;;;;;2.00;1.48;;;14.90;91.40;;;;;;3538853;40;20778;-65
2021/08/09 01:32:14;;;;;;;6.22;1.48;;;14.90;91.30;;;;;;3539832;40;20536;-66
2021/08/09 01:34:41;;;;;;;1.38;1.27;;;14.90;91.40;;;;;;3540751;40;20041;-66
2021/08/09 01:37:09;;;;;;;2.38;1.30;;;14.90;91.40;;;;;;3540269;40;20405;-66
2021/08/09 01:39:38;;;;;;;2.33;1.40;;;14.80;91.30;;;;;;3548667;40;20061;-65
2021/08/09 01:42:04;;;;;;;1.50;1.40;;;14.80;91.40;;;;;;3548107;40;20042;-65
2021/08/09 01:44:31;;;;;;;3.17;1.58;;;14.80;91.30;;;;;;3538944;40;20700;-65
2021/08/09 01:46:57;;;;;;;2.25;1.60;;;14.80;91.60;;;;;;3538795;40;20053;-66
2021/08/09 01:49:25;;;;;;;1.52;1.42;;;14.80;91.30;;;;;;3547400;40;20312;-66
2021/08/09 01:51:53;;;;;;;4.88;1.40;;;14.80;91.60;;;;;;3548446;40;20042;-65
2021/08/09 01:54:21;;;;;;;4.07;1.50;;;14.70;91.30;;;;;;3540408;40;20039;-66
2021/08/09 01:56:48;;;;;;;3.08;1.20;;;14.70;91.30;;;;;;3540291;40;20022;-66
2021/08/09 01:59:13;;;;;;;5.53;1.40;;;14.60;91.40;;;;;;3540664;40;20031;-65
2021/08/09 02:01:41;;;;;;;1.58;1.25;;;14.70;91.40;;;;;;3539127;40;20356;-66
2021/08/09 02:04:08;;;;;;;1.63;1.50;;;14.60;91.40;;;;;;3548742;40;20034;-66
2021/08/09 02:06:33;;;;;;;2.00;1.42;;;14.60;91.40;;;;;;3548563;40;20141;-66
2021/08/09 02:09:01;;;;;;;1.80;1.35;;;14.60;91.40;;;;;;3540458;40;20124;-66
2021/08/09 02:12:13;;;;;;;3.25;1.70;;;14.60;91.40;;;;;;3539864;40;20046;-66
2021/08/09 02:14:52;;;;;;;2.35;1.55;;;14.60;91.50;;;;;;3540609;40;20049;-66
2021/08/09 02:17:32;;;;;;;2.47;1.70;;;14.60;91.50;;;;;;3540739;40;20038;-66
2021/08/09 02:20:32;;;;;;;1.75;1.40;;;14.60;91.60;;;;;;3539874;40;20537;-66
2021/08/09 02:23:05;;;;;;;1.60;1.42;;;14.60;91.60;;;;;;3534881;40;20062;-66
2021/08/09 02:25:35;;;;;;;1.75;1.58;;;14.60;91.50;;;;;;3539021;40;20035;-64
2021/08/09 02:28:13;;;;;;;3.47;1.50;;;14.60;91.40;;;;;;3539228;40;20034;-66
2021/08/09 02:30:46;;;;;;;1.38;1.15;;;14.50;91.50;;;;;;3536756;40;20718;-67
2021/08/09 02:33:12;;;;;;;1.58;1.48;;;14.60;91.60;;;;;;3547657;40;20050;-67
2021/08/09 02:35:39;;;;;;;3.10;1.40;;;14.60;91.60;;;;;;3540837;40;20070;-66
2021/08/09 02:38:06;;;;;;;2.20;2.00;;;14.60;91.60;;;;;;3547933;40;20050;-65
2021/08/09 02:40:34;;;;;;;2.50;1.70;;;14.60;91.50;;;;;;3548196;40;20044;-66
2021/08/09 02:43:00;;;;;;;2.55;1.48;;;14.60;91.60;;;;;;3539916;40;20031;-66
2021/08/09 02:45:27;;;;;;;2.45;1.63;;;14.60;91.50;;;;;;3539931;40;20033;-66
2021/08/09 02:47:54;;;;;;;2.78;1.60;;;14.50;91.40;;;;;;3539868;40;20097;-66
2021/08/09 02:50:21;;;;;;;2.30;1.63;;;14.50;91.50;;;;;;3547448;40;20058;-66
2021/08/09 02:52:47;;;;;;;2.08;1.40;;;14.50;91.50;;;;;;3540884;40;20035;-66
2021/08/09 02:55:16;;;;;;;2.50;1.52;;;14.50;91.50;;;;;;3539259;40;20182;-66
2021/08/09 02:57:46;;;;;;;1.80;1.25;;;14.50;91.50;;;;;;3540456;40;20031;-66
2021/08/09 03:00:13;;;;;;;1.67;1.50;;;14.50;91.40;;;;;;3540145;40;20042;-65
2021/08/09 03:02:42;;;;;;;4.65;1.73;;;14.50;91.50;;;;;;3539462;40;20029;-67
2021/08/09 03:05:10;;;;;;;2.90;1.73;;;14.50;91.50;;;;;;3539366;40;20031;-66
2021/08/09 03:07:40;;;;;;;5.15;1.70;;;14.50;91.40;;;;;;3538496;40;20042;-66
2021/08/09 03:10:08;;;;;;;7.60;1.63;;;14.50;91.50;;;;;;3547983;40;20031;-66
2021/08/09 03:12:34;;;;;;;3.38;1.63;;;14.40;91.60;;;;;;3547835;40;20622;-67
2021/08/09 03:15:00;;;;;;;5.53;2.08;;;14.40;91.80;;;;;;3542300;40;20026;-67
2021/08/09 03:17:26;;;;;;;2.60;1.60;;;14.50;91.80;;;;;;3541787;40;20082;-66
2021/08/09 03:19:52;;;;;;;2.50;1.70;;;14.50;91.50;;;;;;3549222;40;20050;-67
2021/08/09 03:22:18;;;;;;;1.98;1.42;;;14.50;91.40;;;;;;3540606;40;20182;-67
2021/08/09 03:24:44;;;;;;;5.40;2.15;;;14.50;91.40;;;;;;3549233;40;20316;-67
2021/08/09 03:27:09;;;;;;;3.83;1.70;;;14.50;91.30;;;;;;3549456;40;20022;-66
2021/08/09 03:29:35;;;;;;;2.97;1.73;;;14.50;91.20;;;;;;3541035;40;20047;-66
2021/08/09 03:32:01;;;;;;;1.83;1.67;;;14.50;91.30;;;;;;3542047;40;20023;-67
2021/08/09 03:34:27;;;;;;;2.88;1.73;;;14.50;91.40;;;;;;3549493;40;20071;-65
2021/08/09 03:36:53;;;;;;;1.60;1.50;;;14.50;91.60;;;;;;3548806;40;20034;-67
2021/08/09 03:39:21;;;;;;;2.03;1.80;;;14.50;91.60;;;;;;3549731;40;20410;-65
2021/08/09 03:41:47;;;;;;;2.60;1.90;;;14.60;91.30;;;;;;3540220;40;21018;-66
2021/08/09 03:44:13;;;;;;;3.30;1.67;;;14.50;91.30;;;;;;3540979;40;20026;-66
2021/08/09 03:46:39;;;;;;;3.22;1.63;;;14.50;91.40;;;;;;3541617;40;20121;-65
2021/08/09 03:49:09;;;;;;;4.93;1.90;;;14.50;91.50;;;;;;3541443;40;20038;-66
2021/08/09 03:51:37;;;;;;;2.03;1.80;;;14.50;91.50;;;;;;3540793;40;20078;-67
2021/08/09 03:54:03;;;;;;;3.17;1.90;;;14.50;91.60;;;;;;3541370;40;20701;-65
2021/08/09 03:56:29;;;;;;;2.90;1.75;;;14.50;91.50;;;;;;3541278;40;20034;-65
2021/08/09 03:58:55;;;;;;;1.67;1.58;;;14.50;91.30;;;;;;3540992;40;20045;-65
2021/08/09 04:01:21;;;;;;;5.00;2.17;;;14.50;91.30;;;;;;3541853;40;20830;-66
2021/08/09 04:03:46;;;;;;;2.72;2.15;;;14.50;91.40;;;;;;3548997;40;20033;-66
2021/08/09 04:06:13;;;;;;;3.15;1.77;;;14.50;91.30;;;;;;3541027;40;20030;-67
2021/08/09 04:08:40;;;;;;;3.80;2.30;;;14.50;91.40;;;;;;3540592;40;20045;-65
2021/08/09 04:11:07;;;;;;;3.60;1.95;;;14.50;91.60;;;;;;3542021;40;20113;-66
2021/08/09 04:13:36;;;;;;;2.97;1.95;;;14.60;91.50;;;;;;3541530;40;20087;-66
2021/08/09 04:16:03;;;;;;;2.90;1.90;;;14.60;91.30;;;;;;3549623;40;20439;-66
2021/08/09 04:18:29;;;;;;;4.10;1.80;;;14.60;91.30;;;;;;3541204;40;20070;-65
2021/08/09 04:20:55;;;;;;;2.00;1.77;;;14.60;91.10;;;;;;3540395;40;20054;-66
2021/08/09 04:23:21;;;;;;;3.33;2.00;;;14.60;91.30;;;;;;3549298;40;20046;-65
2021/08/09 04:25:47;;;;;;;3.08;1.70;;;14.60;91.50;;;;;;3548941;40;20037;-65
2021/08/09 04:28:13;;;;;;;1.80;1.58;;;14.70;91.40;;;;;;3541590;40;20074;-65
2021/08/09 04:30:39;;;;;;;2.25;1.73;;;14.70;91.40;;;;;;3542079;40;20415;-66
2021/08/09 04:33:05;;;;;;;2.60;1.88;;;14.70;91.40;;;;;;3541691;40;20448;-67
2021/08/09 04:35:31;;;;;;;2.85;1.73;;;14.70;91.50;;;;;;3540965;40;20669;-67
2021/08/09 04:37:58;;;;;;;4.13;2.08;;;14.70;91.40;;;;;;3540710;40;20114;-65
2021/08/09 04:40:25;;;;;;;2.03;1.80;;;14.80;91.40;;;;;;3540321;40;20037;-66
2021/08/09 04:42:51;;;;;;;3.38;1.83;;;14.80;91.20;;;;;;3540454;40;20042;-67
2021/08/09 04:45:20;;;;;;;3.88;1.60;;;14.90;91.00;;;;;;3540680;40;20081;-67
2021/08/09 04:47:46;;;;;;;2.60;1.42;;;14.90;91.10;;;;;;3549140;40;20151;-68
2021/08/09 04:50:12;;;;;;;3.83;1.85;;;14.90;91.00;;;;;;3539539;40;20063;-66
2021/08/09 04:52:41;;;;;;;3.10;1.77;;;14.90;91.00;;;;;;3540137;40;20035;-65
2021/08/09 04:55:13;;;;;;;3.22;1.90;;;14.90;91.00;;;;;;3540801;40;20432;-66
2021/08/09 04:57:40;;;;;;;3.28;1.70;;;15.00;91.10;;;;;;3542571;40;20424;-66
2021/08/09 05:00:07;;;;;;;4.15;1.92;;;15.00;91.10;;;;;;3540390;40;20105;-66
2021/08/09 05:02:37;;;;;;;2.55;1.83;;;15.00;90.90;;;;;;3547887;40;20030;-65
2021/08/09 05:05:04;;;;;;;1.67;1.58;;;15.00;91.10;;;;;;3547559;40;20140;-65
2021/08/09 05:07:30;;;;;;;2.72;1.90;;;15.00;91.00;;;;;;3547398;40;20042;-67
2021/08/09 05:09:58;;;;;;;4.95;1.50;;;15.10;90.90;;;;;;3540318;40;20042;-66
2021/08/09 05:12:23;;;;;;;5.28;1.70;;;15.20;90.90;;;;;;3540436;40;20889;-67
2021/08/09 05:14:54;;;;;;;3.92;1.65;;;15.20;90.80;;;;;;3540430;40;20120;-67
2021/08/09 05:17:20;;;;;;;4.43;1.67;;;15.30;90.70;;;;;;3542177;40;20053;-66
2021/08/09 05:19:47;;;;;;;4.13;1.55;;;15.40;90.70;;;;;;3539994;40;20082;-66
2021/08/09 05:22:13;;;;;;;5.63;2.10;;;15.50;90.50;;;;;;3541943;40;20089;-66
2021/08/09 05:24:39;;;;;;;3.58;1.50;;;15.60;90.20;;;;;;3542154;40;20030;-66
2021/08/09 05:27:05;;;;;;;3.38;1.42;;;15.80;89.50;;;;;;3540082;40;20057;-66
2021/08/09 05:29:31;;;;;;;3.97;1.40;;;16.00;87.00;;;;;;3541038;40;20042;-66
2021/08/09 05:31:58;;;;;;;1.52;1.40;;;16.10;87.20;;;;;;3541252;40;20026;-66
2021/08/09 05:34:24;;;;;;;2.92;1.50;;;16.20;87.10;;;;;;3547641;40;20050;-66
2021/08/09 05:36:50;;;;;;;1.95;1.40;;;16.30;86.10;;;;;;3540855;40;20079;-66
2021/08/09 05:39:16;;;;;;;2.85;1.55;;;16.40;85.80;;;;;;3539035;40;20034;-66
2021/08/09 05:41:42;;;;;;;1.42;1.05;;;16.50;84.80;;;;;;3547946;40;20034;-65
2021/08/09 05:44:09;;;;;;;3.55;1.42;;;16.60;85.30;;;;;;3541145;40;20057;-65
2021/08/09 05:46:37;;;;;;;1.88;1.55;;;16.70;84.70;;;;;;3538166;40;20038;-66
2021/08/09 05:49:04;;;;;;;3.08;1.50;;;16.80;83.40;;;;;;3539104;40;20413;-66
2021/08/09 05:51:30;;;;;;;3.22;1.40;;;16.90;83.50;;;;;;3540090;40;20296;-66
2021/08/09 05:53:57;;;;;;;2.70;1.52;;;17.00;83.00;;;;;;3539871;40;20038;-66
2021/08/09 05:56:23;;;;;;;3.42;1.40;;;17.10;82.10;;;;;;3548426;40;20721;-66
2021/08/09 05:58:54;;;;;;;2.92;1.40;;;17.10;82.00;;;;;;3539873;40;20035;-66
2021/08/09 06:01:24;;;;;;;1.58;1.20;;;17.20;81.60;;;;;;3540025;40;20031;-66
2021/08/09 06:03:50;;;;;;;2.38;1.20;;;17.20;81.70;;;;;;3540155;40;20046;-67
2021/08/09 06:06:17;;;;;;;4.05;1.48;;;17.30;81.10;;;;;;3548723;40;20050;-66
2021/08/09 06:08:44;;;;;;;1.45;1.08;;;17.30;81.50;;;;;;3548264;40;20046;-66
2021/08/09 06:11:11;;;;;;;2.45;1.50;;;17.40;81.00;;;;;;3538401;40;20047;-66
2021/08/09 06:13:37;;;;;;;2.42;1.35;;;17.40;81.40;;;;;;3539652;40;20400;-66
2021/08/09 06:16:03;;;;;;;1.77;1.30;;;17.40;82.00;;;;;;3547780;40;20049;-66
2021/08/09 06:18:34;;;;;;;3.08;1.70;;;17.40;82.00;;;;;;3547756;40;20094;-66
2021/08/09 06:21:01;;;;;;;2.85;1.25;;;17.50;81.70;;;;;;3547315;40;20048;-66
2021/08/09 06:23:27;;;;;;;3.72;1.75;;;17.50;81.70;;;;;;3539317;40;20039;-67
2021/08/09 06:25:56;;;;;;;5.25;1.15;;;17.50;81.30;;;;;;3548361;40;20045;-66
2021/08/09 06:28:23;;;;;;;2.08;1.20;;;17.60;82.50;;;;;;3547239;40;20035;-66
2021/08/09 06:30:50;;;;;;;2.97;1.35;;;17.70;82.70;;;;;;3548484;40;20030;-66
2021/08/09 06:33:18;;;;;;;2.30;1.40;;;17.70;81.50;;;;;;3547866;40;20929;-66
2021/08/09 06:35:44;;;;;;;2.72;1.33;;;17.80;79.90;;;;;;3541171;40;20038;-67
2021/08/09 06:38:12;;;;;;;4.35;1.40;;;17.90;80.00;;;;;;3540588;40;20351;-66
2021/08/09 06:40:43;;;;;;;2.80;1.13;;;17.90;80.20;;;;;;3539777;40;20034;-66
2021/08/09 06:43:09;;;;;;;1.58;1.48;;;18.00;81.00;;;;;;3540697;40;20665;-66
2021/08/09 06:45:41;;;;;;;1.90;1.17;;;18.00;81.30;;;;;;3539251;40;20050;-66
2021/08/09 06:48:10;;;;;;;2.33;1.45;;;18.10;80.70;;;;;;3540456;40;20121;-66
2021/08/09 06:50:36;;;;;;;1.85;1.30;;;18.10;80.40;;;;;;3549634;40;20038;-66
2021/08/09 06:53:02;;;;;;;2.40;1.38;;;18.20;81.80;;;;;;3542532;40;20540;-67
2021/08/09 06:55:29;;;;;;;1.30;1.20;;;18.20;81.40;;;;;;3549843;40;20026;-66
2021/08/09 06:57:55;;;;;;;2.25;1.42;;;18.30;79.70;;;;;;3549737;40;20035;-66
2021/08/09 07:00:20;;;;;;;2.88;1.27;;;18.40;79.20;;;;;;3541447;40;20033;-66
2021/08/09 07:02:46;;;;;;;3.38;1.33;;;18.40;78.00;;;;;;3534381;40;20043;-67
2021/08/09 07:05:12;;;;;;;2.80;1.40;;;18.40;77.50;;;;;;3541748;40;20617;-66
2021/08/09 07:07:44;;;;;;;2.08;1.45;;;18.40;77.20;;;;;;3541048;40;20049;-67
2021/08/09 07:10:11;;;;;;;3.30;1.65;;;18.40;77.80;;;;;;3539757;40;20059;-66
2021/08/09 07:12:37;;;;;;;1.65;1.45;;;18.30;78.10;;;;;;3539766;40;20033;-65
2021/08/09 07:15:04;;;;;;;4.15;1.65;;;18.40;77.90;;;;;;3540929;40;20051;-67
2021/08/09 07:17:38;;;;;;;3.65;1.60;;;18.50;78.20;;;;;;3549398;40;20124;-65
2021/08/09 07:20:06;;;;;;;2.45;1.30;;;18.60;77.00;;;;;;3542435;40;20027;-66
2021/08/09 07:22:32;;;;;;;2.97;1.35;;;18.70;76.60;;;;;;3542207;40;20038;-67
2021/08/09 07:24:58;;;;;;;3.17;1.40;;;18.80;76.60;;;;;;3549473;40;20034;-66
2021/08/09 07:27:24;;;;;;;2.60;1.30;;;18.90;76.20;;;;;;3549385;40;21033;-66
2021/08/09 07:29:50;;;;;;;3.10;1.33;;;19.10;75.00;;;;;;3540744;40;20163;-66
2021/08/09 07:32:15;;;;;;;2.15;1.20;;;19.20;74.20;;;;;;3541152;40;20037;-66
2021/08/09 07:34:41;;;;;;;2.55;1.30;;;19.30;74.10;;;;;;3542145;40;20054;-67
2021/08/09 07:37:08;;;;;;;2.08;1.27;;;19.40;73.40;;;;;;3542632;40;20034;-66
2021/08/09 07:39:36;;;;;;;3.90;1.30;;;19.50;73.20;;;;;;3541168;40;20071;-66
2021/08/09 07:42:04;;;;;;;5.03;1.60;;;19.50;74.30;;;;;;3541125;40;20143;-67
2021/08/09 07:44:30;;;;;;;2.72;1.50;;;19.50;74.30;;;;;;3549323;40;20019;-66
2021/08/09 07:46:55;;;;;;;3.58;1.35;;;19.60;73.50;;;;;;3542091;40;20044;-67
2021/08/09 07:49:22;;;;;;;3.33;1.90;;;19.60;75.10;;;;;;3540558;40;20075;-67
2021/08/09 07:51:47;;;;;;;2.30;1.13;;;19.60;74.80;;;;;;3540011;40;20046;-66
2021/08/09 07:54:13;;;;;;;2.13;1.30;;;19.50;75.80;;;;;;3540312;40;20075;-71
2021/08/09 07:56:39;;;;;;;1.85;1.25;;;19.50;77.10;;;;;;3540713;40;20050;-67
2021/08/09 07:59:05;;;;;;;2.22;1.58;;;19.50;77.80;;;;;;3548583;40;20131;-66
2021/08/09 08:01:32;;;;;;;2.67;1.58;;;19.50;78.40;;;;;;3539768;40;20062;-66
2021/08/09 08:03:58;;;;;;;2.90;1.70;;;19.50;78.90;;;;;;3549067;40;20038;-66
2021/08/09 08:06:24;;;;;;;4.63;2.85;;;19.50;80.50;;;;;;3540204;40;20059;-66
2021/08/09 08:08:52;;;;;;;4.18;2.65;;;19.60;81.30;;;;;;3540674;40;20834;-66
2021/08/09 08:11:17;;;;;;;3.58;1.45;;;19.60;79.80;;;;;;3538861;40;20065;-66
2021/08/09 08:13:44;;;;;;;4.10;1.52;;;19.60;77.00;;;;;;3540461;40;20041;-65
2021/08/09 08:16:10;;;;;;;1.83;1.27;;;19.70;74.80;;;;;;3541673;40;20042;-66
2021/08/09 08:18:38;;;;;;;2.85;1.50;;;19.70;73.60;;;;;;3536902;40;20030;-65
2021/08/09 08:21:04;;;;;;;4.32;1.73;;;19.80;74.10;;;;;;3539914;40;20050;-66
2021/08/09 08:23:30;;;;;;;2.15;1.38;;;19.80;74.70;;;;;;3541685;40;20061;-67
2021/08/09 08:25:57;;;;;;;3.15;1.45;;;19.90;75.00;;;;;;3540509;40;20034;-67
2021/08/09 08:28:23;;;;;;;1.73;1.10;;;20.00;73.00;;;;;;3540013;40;20403;-66
2021/08/09 08:30:51;;;;;;;2.03;1.27;;;20.00;74.20;;;;;;3540586;40;20039;-71
2021/08/09 08:33:17;;;;;;;6.10;1.52;;;20.10;73.80;;;;;;3540167;40;20049;-66
2021/08/09 08:35:43;;;;;;;2.75;1.65;;;20.20;75.20;;;;;;3548719;40;20682;-67
2021/08/09 08:38:09;;;;;;;2.17;1.65;;;20.30;75.70;;;;;;3548903;40;20134;-67
2021/08/09 08:40:45;;;;;;;5.03;1.48;;;20.40;74.90;;;;;;3539601;40;20425;-66
2021/08/09 08:43:27;;;;;;;3.58;1.50;;;20.50;72.40;;;;;;3540337;40;20054;-67
2021/08/09 08:46:00;;;;;;;3.60;1.45;;;20.70;71.00;;;;;;3538564;40;20054;-67
2021/08/09 08:48:30;;;;;;;5.90;2.10;;;20.70;69.90;;;;;;3540217;40;20074;-66
2021/08/09 08:50:57;;;;;;;3.15;1.98;;;20.70;72.40;;;;;;3541626;40;20040;-65
2021/08/09 08:53:33;;;;;;;2.13;1.73;;;20.80;70.00;;;;;;3547831;40;20160;-66
2021/08/09 08:55:59;;;;;;;3.00;1.90;;;20.80;70.50;;;;;;3545068;40;20038;-66
2021/08/09 08:58:25;;;;;;;1.83;1.35;;;20.80;72.40;;;;;;3541606;40;20485;-66
2021/08/09 09:00:51;;;;;;;2.67;1.50;;;20.90;68.80;;;;;;3541774;40;20026;-66
2021/08/09 09:03:22;;;;;;;4.85;1.67;;;20.90;71.00;;;;;;3541316;40;20401;-67
2021/08/09 09:05:58;;;;;;;2.33;1.52;;;20.90;69.40;;;;;;3541848;40;20034;-67
2021/08/09 09:08:39;;;;;;;2.65;1.38;;;21.00;68.10;;;;;;3541764;40;20034;-67
2021/08/09 09:11:07;;;;;;;2.63;1.58;;;21.00;68.50;;;;;;3540930;40;20023;-66
2021/08/09 09:13:32;;;;;;;3.60;2.25;;;21.10;68.70;;;;;;3541754;40;20451;-66
2021/08/09 09:16:07;;;;;;;5.20;1.30;;;21.10;69.00;;;;;;3541264;40;20074;-66
2021/08/09 09:18:57;;;;;;;3.40;1.60;;;21.20;68.20;;;;;;3541103;40;20042;-67
2021/08/09 09:21:35;;;;;;;2.67;1.70;;;21.30;67.30;;;;;;3541319;40;20048;-67
2021/08/09 09:24:15;;;;;;;3.22;1.58;;;21.30;68.90;;;;;;3541391;40;20030;-67
2021/08/09 09:26:46;;;;;;;3.65;1.50;;;21.40;66.90;;;;;;3540220;40;20053;-68
2021/08/09 09:29:16;;;;;;;2.15;1.40;;;21.40;67.80;;;;;;3540796;40;20034;-67
2021/08/09 09:31:43;;;;;;;3.65;1.50;;;21.40;65.90;;;;;;3539226;40;20049;-67
2021/08/09 09:34:11;;;;;;;2.53;1.33;;;21.40;65.60;;;;;;3540595;40;20034;-68
2021/08/09 09:36:47;;;;;;;3.83;1.50;;;21.40;65.00;;;;;;3540820;40;20022;-68
2021/08/09 09:39:37;;;;;;;4.45;1.40;;;21.40;64.30;;;;;;3539488;40;20034;-67
2021/08/09 09:42:06;;;;;;;3.53;1.33;;;21.40;64.70;;;;;;3540450;40;20031;-68
2021/08/09 09:44:35;;;;;;;4.40;1.48;;;21.50;65.30;;;;;;3540709;40;20078;-68
2021/08/09 09:47:22;;;;;;;2.47;1.27;;;21.60;64.80;;;;;;3540103;40;20069;-67
2021/08/09 09:49:56;;;;;;;3.58;1.45;;;21.70;64.30;;;;;;3540423;40;20038;-68
2021/08/09 09:52:39;;;;;;;6.38;1.75;;;21.90;64.80;;;;;;3540458;40;20081;-66
2021/08/09 09:55:09;;;;;;;3.22;1.45;;;22.00;64.90;;;;;;3540479;40;20050;-69
2021/08/09 09:57:35;;;;;;;5.57;1.40;;;22.10;65.60;;;;;;3540406;40;20034;-68
2021/08/09 10:00:04;;;;;;;3.88;1.88;;;22.20;59.90;;;;;;3540972;40;20023;-67
2021/08/09 10:02:43;;;;;;;4.97;2.28;;;22.20;59.90;;;;;;3540719;40;20090;-68
2021/08/09 10:05:10;;;;;;;4.03;1.80;;;22.20;63.00;;;;;;3539433;40;20140;-67
2021/08/09 10:07:37;;;;;;;3.38;1.50;;;22.20;60.60;;;;;;3541003;40;20647;-67
2021/08/09 10:10:05;;;;;;;9.57;4.13;;;22.20;60.40;;;;;;3539480;40;20595;-67
2021/08/09 10:12:32;;;;;;;5.43;2.42;;;22.30;60.90;;;;;;3540819;40;20329;-68
2021/08/09 10:15:00;;;;;;;7.15;2.40;;;22.30;59.40;;;;;;3539349;40;20415;-67
2021/08/09 10:17:28;;;;;;;6.28;2.25;;;22.20;58.20;;;;;;3539495;40;20892;-67
2021/08/09 10:19:58;;;;;;;6.53;3.38;;;22.30;59.20;;;;;;3539347;40;20524;-67
2021/08/09 10:22:24;;;;;;;5.90;2.83;;;22.30;61.40;;;;;;3540632;40;20568;-67
2021/08/09 10:24:55;;;;;;;4.55;1.95;;;22.40;58.10;;;;;;3540507;40;20041;-66
2021/08/09 10:27:45;;;;;;;3.13;1.52;;;22.30;59.50;;;;;;3539208;40;20046;-68
2021/08/09 10:30:17;;;;;;;2.42;1.33;;;22.40;59.40;;;;;;3540893;40;20045;-67
2021/08/09 10:32:50;;;;;;;2.33;1.10;;;22.50;58.60;;;;;;3540380;40;20518;-67
2021/08/09 10:35:40;;;;;;;4.65;1.88;;;22.50;59.20;;;;;;3539597;40;20415;-67
2021/08/09 10:38:17;;;;;;;3.28;1.30;;;22.60;57.90;;;;;;3541297;40;20058;-68
2021/08/09 10:40:45;;;;;;;3.33;1.50;;;22.70;58.50;;;;;;3538211;40;20038;-68
2021/08/09 10:43:11;;;;;;;3.72;1.73;;;22.90;56.10;;;;;;3541170;40;20423;-67
2021/08/09 10:45:40;;;;;;;3.10;1.25;;;23.00;56.20;;;;;;3548173;40;20050;-68
2021/08/09 10:48:09;;;;;;;1.92;1.05;;;23.00;56.00;;;;;;3539857;40;20109;-68
2021/08/09 10:50:39;;;;;;;4.07;1.63;;;23.10;55.20;;;;;;3540064;40;20055;-68
2021/08/09 10:53:25;;;;;;;4.40;1.35;;;23.10;54.90;;;;;;3539017;40;20085;-69
2021/08/09 10:55:55;;;;;;;2.80;1.20;;;23.30;53.70;;;;;;3540435;40;20135;-68
2021/08/09 10:58:43;;;;;;;4.28;2.40;;;23.50;53.00;;;;;;3538815;40;20116;-67
2021/08/09 11:01:10;;;;;;;1.35;0.90;;;23.60;54.00;;;;;;3540679;40;20035;-67
2021/08/09 11:04:05;;;;;;;2.78;1.13;;;23.60;54.90;;;;;;3541161;40;20047;-67
2021/08/09 11:06:54;;;;;;;3.50;1.30;;;23.70;52.40;;;;;;3539875;40;20046;-67
2021/08/09 11:09:32;;;;;;;4.20;1.45;;;23.80;51.40;;;;;;3540622;40;20042;-68
2021/08/09 11:12:17;;;;;;;2.40;1.20;;;23.80;53.10;;;;;;3539607;40;20030;-68
2021/08/09 11:15:11;;;;;;;2.10;1.25;;;23.90;50.80;;;;;;3539150;40;20035;-68
2021/08/09 11:17:37;;;;;;;2.30;1.17;;;23.90;51.00;;;;;;3539281;40;20049;-68
2021/08/09 11:20:21;;;;;;;5.68;2.95;;;24.00;50.10;;;;;;3539603;40;20026;-67
2021/08/09 11:23:15;;;;;;;6.95;2.97;;;24.00;51.00;;;;;;3539645;40;20058;-67
2021/08/09 11:25:47;;;;;;;2.97;1.48;;;24.00;52.80;;;;;;3540622;40;20639;-67
2021/08/09 11:28:16;;;;;;;3.25;1.40;;;24.00;50.90;;;;;;3539569;40;20068;-67
2021/08/09 11:30:55;;;;;;;1.92;1.17;;;24.10;50.90;;;;;;3546182;40;20049;-67
2021/08/09 11:33:26;;;;;;;3.45;1.40;;;24.10;49.10;;;;;;3547568;40;20038;-67
2021/08/09 11:35:57;;;;;;;3.90;2.08;;;24.10;50.90;;;;;;3541610;40;20090;-68
2021/08/09 11:38:24;;;;;;;2.42;1.67;;;24.10;50.20;;;;;;3549065;40;20040;-64
2021/08/09 11:40:59;;;;;;;2.10;1.02;;;24.20;51.20;;;;;;3541705;40;20018;-67
2021/08/09 11:43:28;;;;;;;3.92;1.50;;;24.30;49.30;;;;;;3540951;40;20046;-68
2021/08/09 11:46:00;;;;;;;2.15;1.10;;;24.30;50.80;;;;;;3541968;40;20034;-67
2021/08/09 11:48:33;;;;;;;5.90;1.58;;;24.30;50.90;;;;;;3541503;40;20053;-66
2021/08/09 11:51:01;;;;;;;3.70;1.20;;;24.50;49.50;;;;;;3541922;40;20042;-70
2021/08/09 11:53:27;;;;;;;3.60;1.15;;;24.50;48.70;;;;;;3541276;40;20053;-69
2021/08/09 11:56:15;;;;;;;2.80;1.25;;;24.40;48.80;;;;;;3541943;40;20022;-71
2021/08/09 11:58:44;;;;;;;3.63;1.13;;;24.20;47.20;;;;;;3542052;40;20439;-66
2021/08/09 12:01:33;;;;;;;4.90;2.17;;;24.30;48.00;;;;;;3541561;40;20140;-67
2021/08/09 12:04:14;;;;;;;2.53;1.63;;;24.30;51.20;;;;;;3542101;40;20043;-70
2021/08/09 12:06:49;;;;;;;3.80;1.70;;;24.20;53.00;;;;;;3541376;40;20062;-69
2021/08/09 12:09:17;;;;;;;4.32;1.60;;;24.30;51.60;;;;;;3541635;40;20116;-68
2021/08/09 12:11:44;;;;;;;2.15;1.30;;;24.30;51.20;;;;;;3540407;40;20478;-67
2021/08/09 12:14:11;;;;;;;4.93;1.50;;;24.40;51.00;;;;;;3541902;40;20038;-67
2021/08/09 12:16:47;;;;;;;2.45;1.75;;;24.40;49.30;;;;;;3548878;40;20066;-66
2021/08/09 12:19:15;;;;;;;;;;;24.50;51.30;;;;;;3541941;40;20030;-72
2021/08/09 12:21:41;;;;;;;5.45;1.80;;;24.50;49.50;;;;;;3542101;40;19949;-72
2021/08/09 12:24:16;;;;;;;4.95;1.50;;;24.60;50.20;;;;;;3539807;40;20706;-73
2021/08/09 12:26:42;;;;;;;2.92;1.50;;;24.70;48.30;;;;;;3538350;40;20035;-71
2021/08/09 12:29:19;;;;;;;7.68;1.77;;;24.70;49.20;;;;;;3541297;40;20417;-70
2021/08/09 12:31:46;;;;;;;3.10;1.30;;;24.80;49.10;;;;;;3541289;40;20049;-69
2021/08/09 12:34:14;;;;;;;4.75;1.38;;;24.80;49.10;;;;;;3541678;40;20038;-70
2021/08/09 12:36:40;;;;;;;3.03;1.35;;;24.80;48.60;;;;;;3540865;40;20040;-73
2021/08/09 12:39:07;;;;;;;2.95;1.58;;;24.80;48.10;;;;;;3541188;40;20034;-73
2021/08/09 12:41:35;;;;;;;2.75;1.35;;;24.80;50.10;;;;;;3541209;40;20023;-72
2021/08/09 12:44:05;;;;;;;6.65;1.20;;;24.80;49.60;;;;;;3541338;40;20037;-72
2021/08/09 12:46:32;;;;;;;4.95;1.70;;;24.80;51.10;;;;;;3541382;40;20030;-70
2021/08/09 12:48:59;;;;;;;5.07;2.00;;;24.90;49.30;;;;;;3531071;40;20067;-70
2021/08/09 12:51:25;;;;;;;4.10;1.40;;;24.80;48.80;;;;;;3541335;40;20059;-70
2021/08/09 12:53:51;;;;;;;6.72;3.22;;;24.80;47.60;;;;;;3541049;40;20376;-68
2021/08/09 12:56:17;;;;;;;4.32;2.53;;;24.80;47.30;;;;;;3539275;40;20125;-70
2021/08/09 12:58:42;;;;;;;14.32;8.02;;;24.70;47.90;;;;;;3539787;40;20029;-77
2021/08/09 13:01:08;;;;;;;6.50;3.05;;;24.70;51.70;;;;;;3539946;40;20030;-71